sensor_id;sensor_type;location;lat;lon;timestamp;temperature;humidity
4673;DHT22;61885;53.560;9.940;2022-12-19T00:00:36;-1.90;38.50
4673;DHT22;61885;53.560;9.940;2022-12-19T00:03:06;-1.80;37.80
4673;DHT22;61885;53.560;9.940;2022-12-19T00:05:36;-1.80;37.90
4673;DHT22;61885;53.560;9.940;2022-12-19T00:08:13;-1.90;38.60
4673;DHT22;61885;53.560;9.940;2022-12-19T00:10:54;-1.90;38.10
4673;DHT22;61885;53.560;9.940;2022-12-19T00:13:24;-1.90;39.30
4673;DHT22;61885;53.560;9.940;2022-12-19T00:15:59;-1.50;39.80
4673;DHT22;61885;53.560;9.940;2022-12-19T00:18:30;-1.90;40.30
4673;DHT22;61885;53.560;9.940;2022-12-19T00:21:00;-1.90;40.10
4673;DHT22;61885;53.560;9.940;2022-12-19T00:23:33;-1.80;39.80
4673;DHT22;61885;53.560;9.940;2022-12-19T00:26:15;-1.80;41.90
4673;DHT22;61885;53.560;9.940;2022-12-19T00:29:08;-1.70;39.20
4673;DHT22;61885;53.560;9.940;2022-12-19T00:31:38;-1.80;39.20
4673;DHT22;61885;53.560;9.940;2022-12-19T00:34:08;-1.80;38.30
4673;DHT22;61885;53.560;9.940;2022-12-19T00:36:38;-1.80;39.50
4673;DHT22;61885;53.560;9.940;2022-12-19T00:39:18;-1.70;38.40
4673;DHT22;61885;53.560;9.940;2022-12-19T00:41:50;-1.80;38.50
4673;DHT22;61885;53.560;9.940;2022-12-19T00:44:20;-1.70;38.20
4673;DHT22;61885;53.560;9.940;2022-12-19T00:46:51;-1.70;36.90
4673;DHT22;61885;53.560;9.940;2022-12-19T00:49:26;-1.80;37.10
4673;DHT22;61885;53.560;9.940;2022-12-19T00:51:57;-1.80;39.70
4673;DHT22;61885;53.560;9.940;2022-12-19T00:54:27;-1.80;38.70
4673;DHT22;61885;53.560;9.940;2022-12-19T00:57:00;-1.80;38.80
4673;DHT22;61885;53.560;9.940;2022-12-19T00:59:30;-1.70;38.10
4673;DHT22;61885;53.560;9.940;2022-12-19T01:02:00;-1.80;38.50
4673;DHT22;61885;53.560;9.940;2022-12-19T01:04:29;-1.70;37.20
4673;DHT22;61885;53.560;9.940;2022-12-19T01:07:00;-1.80;38.20
4673;DHT22;61885;53.560;9.940;2022-12-19T01:09:32;-1.80;38.30
4673;DHT22;61885;53.560;9.940;2022-12-19T01:12:05;-1.80;38.60
4673;DHT22;61885;53.560;9.940;2022-12-19T01:14:53;-1.70;38.50
4673;DHT22;61885;53.560;9.940;2022-12-19T01:17:23;-1.70;38.70
4673;DHT22;61885;53.560;9.940;2022-12-19T01:20:01;-1.70;37.80
4673;DHT22;61885;53.560;9.940;2022-12-19T01:22:32;-1.70;38.30
4673;DHT22;61885;53.560;9.940;2022-12-19T01:25:05;-1.70;37.30
4673;DHT22;61885;53.560;9.940;2022-12-19T01:27:40;-1.60;37.30
4673;DHT22;61885;53.560;9.940;2022-12-19T01:30:12;-1.70;36.80
4673;DHT22;61885;53.560;9.940;2022-12-19T01:32:42;-1.70;37.60
4673;DHT22;61885;53.560;9.940;2022-12-19T01:35:16;-1.70;37.50
4673;DHT22;61885;53.560;9.940;2022-12-19T01:37:48;-1.70;37.90
4673;DHT22;61885;53.560;9.940;2022-12-19T01:40:19;-1.60;38.60
4673;DHT22;61885;53.560;9.940;2022-12-19T01:42:51;-1.60;37.60
4673;DHT22;61885;53.560;9.940;2022-12-19T01:45:27;-1.60;38.00
4673;DHT22;61885;53.560;9.940;2022-12-19T01:48:03;-1.60;37.50
4673;DHT22;61885;53.560;9.940;2022-12-19T01:50:40;-1.60;37.80
4673;DHT22;61885;53.560;9.940;2022-12-19T01:53:12;-1.60;38.20
4673;DHT22;61885;53.560;9.940;2022-12-19T01:55:45;-1.60;38.00
4673;DHT22;61885;53.560;9.940;2022-12-19T01:58:18;-1.60;38.70
4673;DHT22;61885;53.560;9.940;2022-12-19T02:00:50;-1.60;38.10
4673;DHT22;61885;53.560;9.940;2022-12-19T02:03:23;-1.60;38.30
4673;DHT22;61885;53.560;9.940;2022-12-19T02:05:57;-1.50;38.90
4673;DHT22;61885;53.560;9.940;2022-12-19T02:08:29;-1.60;38.40
4673;DHT22;61885;53.560;9.940;2022-12-19T02:10:59;-1.50;38.10
4673;DHT22;61885;53.560;9.940;2022-12-19T02:13:33;-1.40;37.70
4673;DHT22;61885;53.560;9.940;2022-12-19T02:16:12;-1.50;37.40
4673;DHT22;61885;53.560;9.940;2022-12-19T02:18:49;-1.50;38.60
4673;DHT22;61885;53.560;9.940;2022-12-19T02:21:28;-1.50;39.40
4673;DHT22;61885;53.560;9.940;2022-12-19T02:27:25;-1.40;40.90
4673;DHT22;61885;53.560;9.940;2022-12-19T02:30:10;-1.40;43.10
4673;DHT22;61885;53.560;9.940;2022-12-19T02:32:55;-1.50;45.80
4673;DHT22;61885;53.560;9.940;2022-12-19T02:35:34;-1.40;47.50
4673;DHT22;61885;53.560;9.940;2022-12-19T02:38:11;-1.40;48.90
4673;DHT22;61885;53.560;9.940;2022-12-19T02:40:49;-1.40;49.80
4673;DHT22;61885;53.560;9.940;2022-12-19T02:43:21;-1.50;52.80
4673;DHT22;61885;53.560;9.940;2022-12-19T02:45:53;-1.40;55.40
4673;DHT22;61885;53.560;9.940;2022-12-19T02:48:26;-1.40;56.70
4673;DHT22;61885;53.560;9.940;2022-12-19T02:50:56;-1.50;58.70
4673;DHT22;61885;53.560;9.940;2022-12-19T02:53:29;-1.40;59.30
4673;DHT22;61885;53.560;9.940;2022-12-19T02:56:14;-1.40;59.30
4673;DHT22;61885;53.560;9.940;2022-12-19T02:58:56;-1.90;62.00
4673;DHT22;61885;53.560;9.940;2022-12-19T03:01:41;-1.30;63.80
4673;DHT22;61885;53.560;9.940;2022-12-19T03:04:23;-1.30;62.50
4673;DHT22;61885;53.560;9.940;2022-12-19T03:07:05;-1.30;63.90
4673;DHT22;61885;53.560;9.940;2022-12-19T03:09:44;-1.30;66.90
4673;DHT22;61885;53.560;9.940;2022-12-19T03:12:22;-1.30;70.90
4673;DHT22;61885;53.560;9.940;2022-12-19T03:14:53;-1.30;74.30
4673;DHT22;61885;53.560;9.940;2022-12-19T03:17:23;-1.20;75.90
4673;DHT22;61885;53.560;9.940;2022-12-19T03:19:58;-1.20;80.30
4673;DHT22;61885;53.560;9.940;2022-12-19T03:22:27;-1.20;83.10
4673;DHT22;61885;53.560;9.940;2022-12-19T03:24:57;-1.30;84.20
4673;DHT22;61885;53.560;9.940;2022-12-19T03:27:32;-1.20;91.50
4673;DHT22;61885;53.560;9.940;2022-12-19T03:30:09;-1.20;91.60
4673;DHT22;61885;53.560;9.940;2022-12-19T03:32:42;-1.20;93.60
4673;DHT22;61885;53.560;9.940;2022-12-19T03:35:19;-1.20;95.10
4673;DHT22;61885;53.560;9.940;2022-12-19T03:37:51;-1.20;96.00
4673;DHT22;61885;53.560;9.940;2022-12-19T03:40:24;-1.20;98.00
4673;DHT22;61885;53.560;9.940;2022-12-19T03:43:05;-1.20;99.90
4673;DHT22;61885;53.560;9.940;2022-12-19T03:45:44;-1.20;99.90
4673;DHT22;61885;53.560;9.940;2022-12-19T03:48:17;-1.20;99.90
4673;DHT22;61885;53.560;9.940;2022-12-19T03:51:00;-1.10;99.90
4673;DHT22;61885;53.560;9.940;2022-12-19T03:53:40;-1.20;99.90
4673;DHT22;61885;53.560;9.940;2022-12-19T03:56:17;-1.10;99.90
4673;DHT22;61885;53.560;9.940;2022-12-19T03:58:58;-1.10;99.90
4673;DHT22;61885;53.560;9.940;2022-12-19T04:01:31;-1.10;99.90
4673;DHT22;61885;53.560;9.940;2022-12-19T04:04:03;-1.10;99.90
4673;DHT22;61885;53.560;9.940;2022-12-19T04:06:39;-1.10;99.90
4673;DHT22;61885;53.560;9.940;2022-12-19T04:09:11;-1.10;99.90
4673;DHT22;61885;53.560;9.940;2022-12-19T04:11:46;-1.10;99.90
4673;DHT22;61885;53.560;9.940;2022-12-19T04:14:21;-1.00;99.90
4673;DHT22;61885;53.560;9.940;2022-12-19T04:16:56;-1.00;99.90
4673;DHT22;61885;53.560;9.940;2022-12-19T04:19:33;-1.10;99.90
4673;DHT22;61885;53.560;9.940;2022-12-19T04:22:11;-1.00;99.90
4673;DHT22;61885;53.560;9.940;2022-12-19T04:24:42;-1.00;99.90
4673;DHT22;61885;53.560;9.940;2022-12-19T04:27:13;-1.00;99.90
4673;DHT22;61885;53.560;9.940;2022-12-19T04:29:46;-1.00;99.90
4673;DHT22;61885;53.560;9.940;2022-12-19T04:32:17;-0.90;99.90
4673;DHT22;61885;53.560;9.940;2022-12-19T04:34:48;-0.90;99.90
4673;DHT22;61885;53.560;9.940;2022-12-19T04:37:21;-1.00;99.90
4673;DHT22;61885;53.560;9.940;2022-12-19T04:39:51;-0.90;99.90
4673;DHT22;61885;53.560;9.940;2022-12-19T04:42:21;-0.90;99.90
4673;DHT22;61885;53.560;9.940;2022-12-19T04:44:53;-0.80;99.90
4673;DHT22;61885;53.560;9.940;2022-12-19T04:47:23;-0.80;99.90
4673;DHT22;61885;53.560;9.940;2022-12-19T04:49:56;-0.80;99.90
4673;DHT22;61885;53.560;9.940;2022-12-19T04:52:28;-0.80;99.90
4673;DHT22;61885;53.560;9.940;2022-12-19T04:54:58;-0.80;99.90
4673;DHT22;61885;53.560;9.940;2022-12-19T04:57:29;-0.90;99.90
4673;DHT22;61885;53.560;9.940;2022-12-19T05:00:01;-0.80;99.90
4673;DHT22;61885;53.560;9.940;2022-12-19T05:02:34;-0.80;99.90
4673;DHT22;61885;53.560;9.940;2022-12-19T05:05:07;-0.80;99.90
4673;DHT22;61885;53.560;9.940;2022-12-19T05:07:40;-0.80;99.90
4673;DHT22;61885;53.560;9.940;2022-12-19T05:10:10;-0.80;99.90
4673;DHT22;61885;53.560;9.940;2022-12-19T05:12:46;-0.70;99.90
4673;DHT22;61885;53.560;9.940;2022-12-19T05:15:16;-0.70;99.90
4673;DHT22;61885;53.560;9.940;2022-12-19T05:17:46;-0.70;99.90
4673;DHT22;61885;53.560;9.940;2022-12-19T05:20:18;-0.70;99.90
4673;DHT22;61885;53.560;9.940;2022-12-19T05:22:50;-0.70;99.90
4673;DHT22;61885;53.560;9.940;2022-12-19T05:25:20;-0.70;99.90
4673;DHT22;61885;53.560;9.940;2022-12-19T05:27:50;-0.70;99.90
4673;DHT22;61885;53.560;9.940;2022-12-19T05:30:19;-0.70;99.90
4673;DHT22;61885;53.560;9.940;2022-12-19T05:32:50;-0.60;99.90
4673;DHT22;61885;53.560;9.940;2022-12-19T05:35:21;-0.60;99.90
4673;DHT22;61885;53.560;9.940;2022-12-19T05:37:53;-0.60;99.90
4673;DHT22;61885;53.560;9.940;2022-12-19T05:40:22;-0.60;99.90
4673;DHT22;61885;53.560;9.940;2022-12-19T05:42:52;-0.50;99.90
4673;DHT22;61885;53.560;9.940;2022-12-19T05:45:22;-0.50;99.90
4673;DHT22;61885;53.560;9.940;2022-12-19T05:47:51;-0.40;99.90
4673;DHT22;61885;53.560;9.940;2022-12-19T05:50:21;-0.40;99.90
4673;DHT22;61885;53.560;9.940;2022-12-19T05:52:54;-0.40;99.90
4673;DHT22;61885;53.560;9.940;2022-12-19T05:55:23;-0.30;99.90
4673;DHT22;61885;53.560;9.940;2022-12-19T05:57:53;-0.30;99.90
4673;DHT22;61885;53.560;9.940;2022-12-19T06:00:23;-0.30;99.90
4673;DHT22;61885;53.560;9.940;2022-12-19T06:02:52;-0.20;99.90
4673;DHT22;61885;53.560;9.940;2022-12-19T06:05:23;-0.20;99.90
4673;DHT22;61885;53.560;9.940;2022-12-19T06:07:55;-0.20;99.90
4673;DHT22;61885;53.560;9.940;2022-12-19T06:10:25;-0.20;99.90
4673;DHT22;61885;53.560;9.940;2022-12-19T06:12:55;-0.20;99.90
4673;DHT22;61885;53.560;9.940;2022-12-19T06:15:27;-0.10;99.90
4673;DHT22;61885;53.560;9.940;2022-12-19T06:17:56;-0.10;99.90
4673;DHT22;61885;53.560;9.940;2022-12-19T06:20:26;-0.10;99.90
4673;DHT22;61885;53.560;9.940;2022-12-19T06:22:58;-0.10;99.90
4673;DHT22;61885;53.560;9.940;2022-12-19T06:25:28;0.00;99.90
4673;DHT22;61885;53.560;9.940;2022-12-19T06:27:58;0.00;99.90
4673;DHT22;61885;53.560;9.940;2022-12-19T06:30:30;0.00;99.90
4673;DHT22;61885;53.560;9.940;2022-12-19T06:32:59;0.00;99.90
4673;DHT22;61885;53.560;9.940;2022-12-19T06:35:31;0.00;99.90
4673;DHT22;61885;53.560;9.940;2022-12-19T06:38:04;0.10;99.90
4673;DHT22;61885;53.560;9.940;2022-12-19T06:40:41;0.40;99.90
4673;DHT22;61885;53.560;9.940;2022-12-19T06:43:24;0.50;99.90
4673;DHT22;61885;53.560;9.940;2022-12-19T06:45:55;0.30;99.90
4673;DHT22;61885;53.560;9.940;2022-12-19T06:48:26;0.30;99.90
4673;DHT22;61885;53.560;9.940;2022-12-19T06:50:56;0.30;99.90
4673;DHT22;61885;53.560;9.940;2022-12-19T06:53:29;0.30;99.90
4673;DHT22;61885;53.560;9.940;2022-12-19T06:55:59;0.30;99.90
4673;DHT22;61885;53.560;9.940;2022-12-19T06:58:29;0.30;99.90
4673;DHT22;61885;53.560;9.940;2022-12-19T07:00:59;0.30;99.90
4673;DHT22;61885;53.560;9.940;2022-12-19T07:03:37;0.40;99.90
4673;DHT22;61885;53.560;9.940;2022-12-19T07:06:08;0.40;99.90
4673;DHT22;61885;53.560;9.940;2022-12-19T07:08:41;0.50;99.90
4673;DHT22;61885;53.560;9.940;2022-12-19T07:11:12;0.40;99.90
4673;DHT22;61885;53.560;9.940;2022-12-19T07:13:42;0.40;99.90
4673;DHT22;61885;53.560;9.940;2022-12-19T07:16:11;0.40;99.90
4673;DHT22;61885;53.560;9.940;2022-12-19T07:18:42;0.40;99.90
4673;DHT22;61885;53.560;9.940;2022-12-19T07:21:12;0.50;99.90
4673;DHT22;61885;53.560;9.940;2022-12-19T07:23:44;0.50;99.90
4673;DHT22;61885;53.560;9.940;2022-12-19T07:26:14;0.50;99.90
4673;DHT22;61885;53.560;9.940;2022-12-19T07:28:45;0.50;99.90
4673;DHT22;61885;53.560;9.940;2022-12-19T07:31:17;0.50;99.90
4673;DHT22;61885;53.560;9.940;2022-12-19T07:33:46;0.50;99.90
4673;DHT22;61885;53.560;9.940;2022-12-19T07:36:16;0.60;99.90
4673;DHT22;61885;53.560;9.940;2022-12-19T07:38:48;0.60;99.90
4673;DHT22;61885;53.560;9.940;2022-12-19T07:41:19;0.60;99.90
4673;DHT22;61885;53.560;9.940;2022-12-19T07:43:48;0.60;99.90
4673;DHT22;61885;53.560;9.940;2022-12-19T07:46:18;0.60;99.90
4673;DHT22;61885;53.560;9.940;2022-12-19T07:48:49;0.70;99.90
4673;DHT22;61885;53.560;9.940;2022-12-19T07:51:19;0.70;99.90
4673;DHT22;61885;53.560;9.940;2022-12-19T07:53:51;0.70;99.90
4673;DHT22;61885;53.560;9.940;2022-12-19T07:56:23;0.80;99.90
4673;DHT22;61885;53.560;9.940;2022-12-19T07:58:52;0.70;99.90
4673;DHT22;61885;53.560;9.940;2022-12-19T08:01:25;0.70;99.90
4673;DHT22;61885;53.560;9.940;2022-12-19T08:03:55;0.70;99.90
4673;DHT22;61885;53.560;9.940;2022-12-19T08:06:24;0.80;99.90
4673;DHT22;61885;53.560;9.940;2022-12-19T08:08:58;0.80;99.90
4673;DHT22;61885;53.560;9.940;2022-12-19T08:11:28;0.80;99.90
4673;DHT22;61885;53.560;9.940;2022-12-19T08:13:58;0.80;99.90
4673;DHT22;61885;53.560;9.940;2022-12-19T08:16:28;0.80;99.90
4673;DHT22;61885;53.560;9.940;2022-12-19T08:18:58;0.90;99.90
4673;DHT22;61885;53.560;9.940;2022-12-19T08:21:28;0.80;99.90
4673;DHT22;61885;53.560;9.940;2022-12-19T08:24:02;0.80;99.90
4673;DHT22;61885;53.560;9.940;2022-12-19T08:26:38;0.80;99.90
4673;DHT22;61885;53.560;9.940;2022-12-19T08:29:09;0.90;99.90
4673;DHT22;61885;53.560;9.940;2022-12-19T08:31:38;1.00;99.90
4673;DHT22;61885;53.560;9.940;2022-12-19T08:34:12;1.00;99.90
4673;DHT22;61885;53.560;9.940;2022-12-19T08:36:43;1.00;99.90
4673;DHT22;61885;53.560;9.940;2022-12-19T08:39:15;1.10;99.90
4673;DHT22;61885;53.560;9.940;2022-12-19T08:41:45;1.10;99.90
4673;DHT22;61885;53.560;9.940;2022-12-19T08:44:16;1.10;99.90
4673;DHT22;61885;53.560;9.940;2022-12-19T08:46:45;1.10;99.90
4673;DHT22;61885;53.560;9.940;2022-12-19T08:49:16;1.10;99.90
4673;DHT22;61885;53.560;9.940;2022-12-19T08:51:46;1.10;99.90
4673;DHT22;61885;53.560;9.940;2022-12-19T08:54:23;1.10;99.90
4673;DHT22;61885;53.560;9.940;2022-12-19T08:56:52;1.10;99.90
4673;DHT22;61885;53.560;9.940;2022-12-19T08:59:24;1.20;99.90
4673;DHT22;61885;53.560;9.940;2022-12-19T09:01:53;1.20;99.90
4673;DHT22;61885;53.560;9.940;2022-12-19T09:04:24;1.30;99.90
4673;DHT22;61885;53.560;9.940;2022-12-19T09:06:55;1.40;99.90
4673;DHT22;61885;53.560;9.940;2022-12-19T09:09:28;1.40;99.90
4673;DHT22;61885;53.560;9.940;2022-12-19T09:11:59;1.50;99.90
4673;DHT22;61885;53.560;9.940;2022-12-19T09:14:34;1.50;99.90
4673;DHT22;61885;53.560;9.940;2022-12-19T09:17:05;1.50;99.90
4673;DHT22;61885;53.560;9.940;2022-12-19T09:19:34;1.50;99.90
4673;DHT22;61885;53.560;9.940;2022-12-19T09:22:04;1.60;99.90
4673;DHT22;61885;53.560;9.940;2022-12-19T09:24:39;1.60;99.90
4673;DHT22;61885;53.560;9.940;2022-12-19T09:27:13;1.60;99.90
4673;DHT22;61885;53.560;9.940;2022-12-19T09:29:45;1.60;99.90
4673;DHT22;61885;53.560;9.940;2022-12-19T09:32:16;1.60;99.90
4673;DHT22;61885;53.560;9.940;2022-12-19T09:34:46;1.70;99.90
4673;DHT22;61885;53.560;9.940;2022-12-19T09:37:16;1.70;99.90
4673;DHT22;61885;53.560;9.940;2022-12-19T09:39:49;1.70;99.90
4673;DHT22;61885;53.560;9.940;2022-12-19T09:42:37;1.80;99.90
4673;DHT22;61885;53.560;9.940;2022-12-19T09:45:37;1.80;99.90
4673;DHT22;61885;53.560;9.940;2022-12-19T09:48:11;1.80;99.90
4673;DHT22;61885;53.560;9.940;2022-12-19T09:50:49;1.90;99.90
4673;DHT22;61885;53.560;9.940;2022-12-19T09:53:28;1.80;99.90
4673;DHT22;61885;53.560;9.940;2022-12-19T09:56:17;1.90;99.90
4673;DHT22;61885;53.560;9.940;2022-12-19T09:58:55;2.00;99.90
4673;DHT22;61885;53.560;9.940;2022-12-19T10:01:29;2.20;99.90
4673;DHT22;61885;53.560;9.940;2022-12-19T10:04:09;2.10;99.90
4673;DHT22;61885;53.560;9.940;2022-12-19T10:06:41;2.20;99.90
4673;DHT22;61885;53.560;9.940;2022-12-19T10:09:12;2.20;99.90
4673;DHT22;61885;53.560;9.940;2022-12-19T10:11:56;2.30;99.90
4673;DHT22;61885;53.560;9.940;2022-12-19T10:14:40;2.20;99.90
4673;DHT22;61885;53.560;9.940;2022-12-19T10:17:25;2.20;99.90
4673;DHT22;61885;53.560;9.940;2022-12-19T10:20:14;2.30;99.90
4673;DHT22;61885;53.560;9.940;2022-12-19T10:22:54;2.20;99.90
4673;DHT22;61885;53.560;9.940;2022-12-19T10:25:44;2.40;99.90
4673;DHT22;61885;53.560;9.940;2022-12-19T10:28:34;2.50;99.90
4673;DHT22;61885;53.560;9.940;2022-12-19T10:31:15;2.50;99.90
4673;DHT22;61885;53.560;9.940;2022-12-19T10:33:51;2.40;99.90
4673;DHT22;61885;53.560;9.940;2022-12-19T10:36:26;2.20;99.90
4673;DHT22;61885;53.560;9.940;2022-12-19T10:39:04;2.20;99.90
4673;DHT22;61885;53.560;9.940;2022-12-19T10:41:35;2.20;99.90
4673;DHT22;61885;53.560;9.940;2022-12-19T10:44:12;2.20;99.90
4673;DHT22;61885;53.560;9.940;2022-12-19T10:46:45;2.20;99.90
4673;DHT22;61885;53.560;9.940;2022-12-19T10:49:18;2.20;99.90
4673;DHT22;61885;53.560;9.940;2022-12-19T10:51:57;2.20;99.90
4673;DHT22;61885;53.560;9.940;2022-12-19T10:54:38;2.30;99.90
4673;DHT22;61885;53.560;9.940;2022-12-19T10:57:23;2.30;99.90
4673;DHT22;61885;53.560;9.940;2022-12-19T11:00:00;2.40;99.90
4673;DHT22;61885;53.560;9.940;2022-12-19T11:02:34;2.30;99.90
4673;DHT22;61885;53.560;9.940;2022-12-19T11:05:21;2.30;99.90
4673;DHT22;61885;53.560;9.940;2022-12-19T11:07:59;2.30;99.90
4673;DHT22;61885;53.560;9.940;2022-12-19T11:10:36;2.40;99.90
4673;DHT22;61885;53.560;9.940;2022-12-19T11:13:21;2.40;99.90
4673;DHT22;61885;53.560;9.940;2022-12-19T11:15:56;2.40;99.90
4673;DHT22;61885;53.560;9.940;2022-12-19T11:18:34;2.40;99.90
4673;DHT22;61885;53.560;9.940;2022-12-19T11:21:15;2.40;99.90
4673;DHT22;61885;53.560;9.940;2022-12-19T11:23:51;2.50;99.90
4673;DHT22;61885;53.560;9.940;2022-12-19T11:26:29;2.50;99.90
4673;DHT22;61885;53.560;9.940;2022-12-19T11:29:20;2.50;99.90
4673;DHT22;61885;53.560;9.940;2022-12-19T11:31:58;2.50;99.90
4673;DHT22;61885;53.560;9.940;2022-12-19T11:34:30;2.50;99.90
4673;DHT22;61885;53.560;9.940;2022-12-19T11:37:10;2.50;99.90
4673;DHT22;61885;53.560;9.940;2022-12-19T11:39:48;2.60;99.90
4673;DHT22;61885;53.560;9.940;2022-12-19T11:42:31;2.70;99.90
4673;DHT22;61885;53.560;9.940;2022-12-19T11:45:14;2.60;99.90
4673;DHT22;61885;53.560;9.940;2022-12-19T11:47:53;2.80;99.90
4673;DHT22;61885;53.560;9.940;2022-12-19T11:50:27;2.80;99.90
4673;DHT22;61885;53.560;9.940;2022-12-19T11:53:05;2.90;99.90
4673;DHT22;61885;53.560;9.940;2022-12-19T11:55:49;2.80;99.90
4673;DHT22;61885;53.560;9.940;2022-12-19T11:58:26;3.60;99.90
4673;DHT22;61885;53.560;9.940;2022-12-19T12:01:07;2.90;99.90
4673;DHT22;61885;53.560;9.940;2022-12-19T12:07:02;2.90;99.90
4673;DHT22;61885;53.560;9.940;2022-12-19T12:09:37;2.90;99.90
4673;DHT22;61885;53.560;9.940;2022-12-19T12:12:28;3.00;99.90
4673;DHT22;61885;53.560;9.940;2022-12-19T12:15:19;3.00;99.90
4673;DHT22;61885;53.560;9.940;2022-12-19T12:18:00;3.10;99.90
4673;DHT22;61885;53.560;9.940;2022-12-19T12:20:56;3.10;99.90
4673;DHT22;61885;53.560;9.940;2022-12-19T12:23:37;3.20;99.90
4673;DHT22;61885;53.560;9.940;2022-12-19T12:26:23;3.20;99.90
4673;DHT22;61885;53.560;9.940;2022-12-19T12:29:05;3.30;99.90
4673;DHT22;61885;53.560;9.940;2022-12-19T12:31:46;3.50;99.90
4673;DHT22;61885;53.560;9.940;2022-12-19T12:34:37;3.60;99.90
4673;DHT22;61885;53.560;9.940;2022-12-19T12:37:33;3.60;99.90
4673;DHT22;61885;53.560;9.940;2022-12-19T12:40:20;3.80;99.90
4673;DHT22;61885;53.560;9.940;2022-12-19T12:42:59;4.00;99.90
4673;DHT22;61885;53.560;9.940;2022-12-19T12:45:35;4.10;99.90
4673;DHT22;61885;53.560;9.940;2022-12-19T12:48:17;4.20;99.90
4673;DHT22;61885;53.560;9.940;2022-12-19T12:50:51;4.20;99.90
4673;DHT22;61885;53.560;9.940;2022-12-19T12:53:28;4.30;99.90
4673;DHT22;61885;53.560;9.940;2022-12-19T12:56:01;4.30;99.90
4673;DHT22;61885;53.560;9.940;2022-12-19T12:59:17;4.40;99.90
4673;DHT22;61885;53.560;9.940;2022-12-19T13:01:58;4.40;99.90
4673;DHT22;61885;53.560;9.940;2022-12-19T13:04:33;4.40;99.90
4673;DHT22;61885;53.560;9.940;2022-12-19T13:07:22;4.50;99.90
4673;DHT22;61885;53.560;9.940;2022-12-19T13:10:28;4.60;99.90
4673;DHT22;61885;53.560;9.940;2022-12-19T13:13:05;4.60;99.90
4673;DHT22;61885;53.560;9.940;2022-12-19T13:15:46;4.80;99.90
4673;DHT22;61885;53.560;9.940;2022-12-19T13:18:36;4.80;99.90
4673;DHT22;61885;53.560;9.940;2022-12-19T13:21:08;4.80;99.90
4673;DHT22;61885;53.560;9.940;2022-12-19T13:23:48;4.90;99.90
4673;DHT22;61885;53.560;9.940;2022-12-19T13:26:51;4.50;99.90
4673;DHT22;61885;53.560;9.940;2022-12-19T13:32:26;5.10;99.90
4673;DHT22;61885;53.560;9.940;2022-12-19T13:35:02;5.50;99.90
4673;DHT22;61885;53.560;9.940;2022-12-19T13:37:41;5.30;99.90
4673;DHT22;61885;53.560;9.940;2022-12-19T13:40:29;5.30;99.90
4673;DHT22;61885;53.560;9.940;2022-12-19T13:43:14;5.30;99.90
4673;DHT22;61885;53.560;9.940;2022-12-19T13:46:36;5.30;99.90
4673;DHT22;61885;53.560;9.940;2022-12-19T13:49:16;5.30;99.90
4673;DHT22;61885;53.560;9.940;2022-12-19T13:51:52;5.40;99.90
4673;DHT22;61885;53.560;9.940;2022-12-19T13:54:28;5.40;99.90
4673;DHT22;61885;53.560;9.940;2022-12-19T13:57:13;5.40;99.90
4673;DHT22;61885;53.560;9.940;2022-12-19T13:59:56;5.50;99.90
4673;DHT22;61885;53.560;9.940;2022-12-19T14:02:34;5.70;99.90
4673;DHT22;61885;53.560;9.940;2022-12-19T14:05:19;5.60;99.90
4673;DHT22;61885;53.560;9.940;2022-12-19T14:07:50;5.60;99.90
4673;DHT22;61885;53.560;9.940;2022-12-19T14:10:24;5.60;99.90
4673;DHT22;61885;53.560;9.940;2022-12-19T14:13:05;5.60;99.90
4673;DHT22;61885;53.560;9.940;2022-12-19T14:15:51;5.60;99.90
4673;DHT22;61885;53.560;9.940;2022-12-19T14:18:23;5.70;99.90
4673;DHT22;61885;53.560;9.940;2022-12-19T14:21:13;5.70;99.90
4673;DHT22;61885;53.560;9.940;2022-12-19T14:23:44;5.70;99.90
4673;DHT22;61885;53.560;9.940;2022-12-19T14:26:22;5.70;99.90
4673;DHT22;61885;53.560;9.940;2022-12-19T14:28:58;5.70;99.90
4673;DHT22;61885;53.560;9.940;2022-12-19T14:31:34;5.80;99.90
4673;DHT22;61885;53.560;9.940;2022-12-19T14:34:14;5.80;99.90
4673;DHT22;61885;53.560;9.940;2022-12-19T14:36:50;5.80;99.90
4673;DHT22;61885;53.560;9.940;2022-12-19T14:39:24;5.80;99.90
4673;DHT22;61885;53.560;9.940;2022-12-19T14:42:06;5.80;99.90
4673;DHT22;61885;53.560;9.940;2022-12-19T14:44:53;5.90;99.90
4673;DHT22;61885;53.560;9.940;2022-12-19T14:47:34;5.90;99.90
4673;DHT22;61885;53.560;9.940;2022-12-19T14:50:25;5.90;99.90
4673;DHT22;61885;53.560;9.940;2022-12-19T14:53:07;5.80;99.90
4673;DHT22;61885;53.560;9.940;2022-12-19T14:55:40;5.90;99.90
4673;DHT22;61885;53.560;9.940;2022-12-19T14:58:16;5.90;99.90
4673;DHT22;61885;53.560;9.940;2022-12-19T15:00:49;5.90;99.90
4673;DHT22;61885;53.560;9.940;2022-12-19T15:03:32;5.90;99.90
4673;DHT22;61885;53.560;9.940;2022-12-19T15:06:08;6.00;99.90
4673;DHT22;61885;53.560;9.940;2022-12-19T15:08:42;6.00;99.90
4673;DHT22;61885;53.560;9.940;2022-12-19T15:11:26;6.00;99.90
4673;DHT22;61885;53.560;9.940;2022-12-19T15:14:10;6.10;99.90
4673;DHT22;61885;53.560;9.940;2022-12-19T15:16:40;6.20;99.90
4673;DHT22;61885;53.560;9.940;2022-12-19T15:19:13;6.10;99.90
4673;DHT22;61885;53.560;9.940;2022-12-19T15:21:44;6.20;99.90
4673;DHT22;61885;53.560;9.940;2022-12-19T15:24:18;6.20;99.90
4673;DHT22;61885;53.560;9.940;2022-12-19T15:26:51;6.20;99.90
4673;DHT22;61885;53.560;9.940;2022-12-19T15:29:22;6.20;99.90
4673;DHT22;61885;53.560;9.940;2022-12-19T15:31:52;6.20;99.90
4673;DHT22;61885;53.560;9.940;2022-12-19T15:34:26;6.30;99.90
4673;DHT22;61885;53.560;9.940;2022-12-19T15:36:58;6.30;99.90
4673;DHT22;61885;53.560;9.940;2022-12-19T15:39:32;6.30;99.90
4673;DHT22;61885;53.560;9.940;2022-12-19T15:42:02;6.30;99.90
4673;DHT22;61885;53.560;9.940;2022-12-19T15:44:51;6.20;99.90
4673;DHT22;61885;53.560;9.940;2022-12-19T15:47:32;6.30;99.90
4673;DHT22;61885;53.560;9.940;2022-12-19T15:50:16;6.30;99.90
4673;DHT22;61885;53.560;9.940;2022-12-19T15:53:11;6.30;99.90
4673;DHT22;61885;53.560;9.940;2022-12-19T15:55:52;6.40;99.90
4673;DHT22;61885;53.560;9.940;2022-12-19T15:58:24;6.30;99.90
4673;DHT22;61885;53.560;9.940;2022-12-19T16:01:03;6.30;99.90
4673;DHT22;61885;53.560;9.940;2022-12-19T16:03:33;6.40;99.90
4673;DHT22;61885;53.560;9.940;2022-12-19T16:06:11;6.40;99.90
4673;DHT22;61885;53.560;9.940;2022-12-19T16:08:44;6.50;99.90
4673;DHT22;61885;53.560;9.940;2022-12-19T16:11:20;6.50;99.90
4673;DHT22;61885;53.560;9.940;2022-12-19T16:13:54;6.50;99.90
4673;DHT22;61885;53.560;9.940;2022-12-19T16:19:25;6.60;99.90
4673;DHT22;61885;53.560;9.940;2022-12-19T16:22:00;6.60;99.90
4673;DHT22;61885;53.560;9.940;2022-12-19T16:24:33;6.60;99.90
4673;DHT22;61885;53.560;9.940;2022-12-19T16:27:03;6.60;99.90
4673;DHT22;61885;53.560;9.940;2022-12-19T16:29:36;6.70;99.90
4673;DHT22;61885;53.560;9.940;2022-12-19T16:32:09;6.70;99.90
4673;DHT22;61885;53.560;9.940;2022-12-19T16:34:41;6.70;99.90
4673;DHT22;61885;53.560;9.940;2022-12-19T16:37:14;6.70;99.90
4673;DHT22;61885;53.560;9.940;2022-12-19T16:39:44;6.80;99.90
4673;DHT22;61885;53.560;9.940;2022-12-19T16:42:16;6.70;99.90
4673;DHT22;61885;53.560;9.940;2022-12-19T16:44:51;6.80;99.90
4673;DHT22;61885;53.560;9.940;2022-12-19T16:47:21;6.80;99.90
4673;DHT22;61885;53.560;9.940;2022-12-19T16:49:55;6.80;99.90
4673;DHT22;61885;53.560;9.940;2022-12-19T16:52:34;6.80;99.90
4673;DHT22;61885;53.560;9.940;2022-12-19T16:55:04;6.80;99.90
4673;DHT22;61885;53.560;9.940;2022-12-19T16:57:37;6.90;99.90
4673;DHT22;61885;53.560;9.940;2022-12-19T17:00:17;6.90;99.90